Time;durP1;ratioP1;P1;durP2;ratioP2;P2;SDS_P1;SDS_P2;PMS_P1;PMS_P2;Temp;Humidity;BMP_temperature;BMP_pressure;BME280_temperature;BME280_humidity;BME280_pressure;Samples;Min_cycle;Max_cycle;Signal;HPM_P1;HPM_P2
2022/05/02 00:01:21;;;;;;;;;;;9.30;84.40;;;;;;8394462;28;20265;-68
2022/05/02 00:05:23;;;;;;;;;;;9.30;84.50;;;;;;8404895;28;20426;-67
2022/05/02 00:09:25;;;;;;;;;;;9.20;84.50;;;;;;8393705;28;19925;-67
2022/05/02 00:13:27;;;;;;;;;;;9.30;84.80;;;;;;8404464;28;19964;-68
2022/05/02 00:21:49;;;;;;;;;;;9.20;84.80;;;;;;8401644;28;19928;-68
2022/05/02 00:25:50;;;;;;;;;;;9.20;84.80;;;;;;8403984;28;19927;-68
2022/05/02 00:29:52;;;;;;;;;;;9.20;85.00;;;;;;8403661;28;19920;-67
2022/05/02 00:33:54;;;;;;;;;;;9.20;84.70;;;;;;8400767;28;19920;-68
2022/05/02 00:37:55;;;;;;;;;;;9.00;84.70;;;;;;8400797;28;19927;-68
2022/05/02 00:41:57;;;;;;;;;;;8.90;84.40;;;;;;8397414;28;19920;-68
2022/05/02 00:45:59;;;;;;;;;;;8.80;85.20;;;;;;8393948;28;19927;-67
2022/05/02 00:50:05;;;;;;;;;;;8.80;84.40;;;;;;8392766;28;19924;-68
2022/05/02 00:54:07;;;;;;;;;;;8.80;84.50;;;;;;8399436;28;19920;-67
2022/05/02 00:58:09;;;;;;;;;;;8.70;84.40;;;;;;8395093;28;19931;-68
2022/05/02 01:02:12;;;;;;;;;;;8.70;84.50;;;;;;8394963;28;20447;-67
2022/05/02 01:10:34;;;;;;;;;;;8.70;84.40;;;;;;8393221;28;19920;-67
2022/05/02 01:14:36;;;;;;;;;;;8.60;84.70;;;;;;8422961;27;19927;-68
2022/05/02 01:18:38;;;;;;;;;;;8.60;84.60;;;;;;8398307;28;19924;-68
2022/05/02 01:22:39;;;;;;;;;;;8.50;84.80;;;;;;8395622;28;20368;-67
2022/05/02 01:26:41;;;;;;;;;;;8.50;85.50;;;;;;8391289;28;19931;-68
2022/05/02 01:30:43;;;;;;;;;;;8.40;84.60;;;;;;8392498;28;19928;-67
2022/05/02 01:34:44;;;;;;;;;;;8.40;84.50;;;;;;8427612;27;19924;-67
2022/05/02 01:38:46;;;;;;;;;;;8.30;84.30;;;;;;8400015;28;20287;-67
2022/05/02 01:42:48;;;;;;;;;;;8.30;84.30;;;;;;8395876;28;19920;-67
2022/05/02 01:46:51;;;;;;;;;;;8.20;84.10;;;;;;8391756;28;19927;-67
2022/05/02 01:50:52;;;;;;;;;;;8.20;84.10;;;;;;8397049;28;20268;-67
2022/05/02 01:54:54;;;;;;;;;;;8.10;84.10;;;;;;8398435;28;19920;-67
2022/05/02 01:58:56;;;;;;;;;;;8.10;84.20;;;;;;8396508;28;19927;-67
2022/05/02 02:02:57;;;;;;;;;;;8.00;84.20;;;;;;8389588;28;19977;-68
2022/05/02 02:06:59;;;;;;;;;;;8.00;84.30;;;;;;8394326;28;19928;-67
2022/05/02 02:11:03;;;;;;;;;;;8.00;84.20;;;;;;8395055;28;19920;-68
2022/05/02 02:15:05;;;;;;;;;;;7.90;84.20;;;;;;8393338;28;19970;-68
2022/05/02 02:19:07;;;;;;;;;;;7.90;84.10;;;;;;8395261;28;19920;-68
2022/05/02 02:23:09;;;;;;;;;;;7.80;84.20;;;;;;8398213;28;19927;-67
2022/05/02 02:27:11;;;;;;;;;;;7.80;84.00;;;;;;8392044;28;19942;-67
2022/05/02 02:31:13;;;;;;;;;;;7.80;84.10;;;;;;8398596;28;19928;-67
2022/05/02 02:35:15;;;;;;;;;;;7.70;84.90;;;;;;8391200;28;19924;-67
2022/05/02 02:39:16;;;;;;;;;;;7.60;85.40;;;;;;8391522;28;20276;-67
2022/05/02 02:43:18;;;;;;;;;;;7.60;85.50;;;;;;8399121;28;20023;-67
2022/05/02 02:47:20;;;;;;;;;;;7.50;85.70;;;;;;8388275;28;19928;-67
2022/05/02 02:51:21;;;;;;;;;;;7.50;86.00;;;;;;8390932;28;19928;-67
2022/05/02 02:55:23;;;;;;;;;;;7.50;86.40;;;;;;8395068;28;19927;-68
2022/05/02 02:59:25;;;;;;;;;;;7.50;86.90;;;;;;8383842;28;19920;-68
2022/05/02 03:03:27;;;;;;;;;;;7.40;87.40;;;;;;8396856;28;19924;-68
2022/05/02 03:07:29;;;;;;;;;;;7.40;87.40;;;;;;8388412;28;20364;-68
2022/05/02 03:11:31;;;;;;;;;;;7.30;87.80;;;;;;8390774;28;19920;-68
2022/05/02 03:15:33;;;;;;;;;;;7.30;87.50;;;;;;8399912;28;19921;-68
2022/05/02 03:19:40;;;;;;;;;;;7.30;87.80;;;;;;8391881;28;19924;-68
2022/05/02 03:23:41;;;;;;;;;;;7.30;87.90;;;;;;8435911;27;19920;-68
2022/05/02 03:27:43;;;;;;;;;;;7.20;88.20;;;;;;8392022;28;19931;-68
2022/05/02 03:31:45;;;;;;;;;;;7.20;87.90;;;;;;8405365;28;19943;-68
2022/05/02 03:35:46;;;;;;;;;;;7.20;87.50;;;;;;8391586;28;19978;-68
2022/05/02 03:39:48;;;;;;;;;;;7.10;88.10;;;;;;8397255;28;19920;-68
2022/05/02 03:43:50;;;;;;;;;;;7.10;88.20;;;;;;8405682;28;19920;-68
2022/05/02 03:47:56;;;;;;;;;;;7.10;87.10;;;;;;8394500;28;20029;-68
2022/05/02 03:51:58;;;;;;;;;;;7.00;87.50;;;;;;8390535;28;19920;-68
2022/05/02 03:56:00;;;;;;;;;;;7.00;87.30;;;;;;8386656;28;20307;-68
2022/05/02 04:00:01;;;;;;;;;;;6.90;87.50;;;;;;8427553;27;20386;-68
2022/05/02 04:04:03;;;;;;;;;;;6.90;87.80;;;;;;8388467;28;19928;-68
2022/05/02 04:08:05;;;;;;;;;;;6.80;87.70;;;;;;8377993;28;20398;-68
2022/05/02 04:12:07;;;;;;;;;;;6.80;87.70;;;;;;8386633;28;19920;-68
2022/05/02 04:16:08;;;;;;;;;;;6.70;87.40;;;;;;8390239;28;19931;-67
2022/05/02 04:20:10;;;;;;;;;;;6.70;87.80;;;;;;8396130;28;19928;-68
2022/05/02 04:24:12;;;;;;;;;;;6.70;89.10;;;;;;8386749;28;19924;-68
2022/05/02 04:28:14;;;;;;;;;;;6.60;90.40;;;;;;8391581;28;20280;-67
2022/05/02 04:32:15;;;;;;;;;;;6.60;90.00;;;;;;8380656;28;19924;-68
2022/05/02 04:36:17;;;;;;;;;;;6.60;89.80;;;;;;8370688;28;19920;-68
2022/05/02 04:40:19;;;;;;;;;;;6.60;89.80;;;;;;8387986;28;19920;-68
2022/05/02 04:44:20;;;;;;;;;;;6.60;89.50;;;;;;8386762;28;20272;-68
2022/05/02 04:48:22;;;;;;;;;;;6.70;89.80;;;;;;8392866;28;20280;-68
2022/05/02 04:52:24;;;;;;;;;;;6.70;89.90;;;;;;8386046;28;20295;-67
2022/05/02 04:56:25;;;;;;;;;;;6.80;89.70;;;;;;8389271;28;19920;-67
2022/05/02 05:00:27;;;;;;;;;;;6.80;90.10;;;;;;8381098;28;20296;-68
2022/05/02 05:04:29;;;;;;;;;;;6.90;90.20;;;;;;8385211;28;19920;-68
2022/05/02 05:08:30;;;;;;;;;;;6.90;90.50;;;;;;8393148;28;19998;-68
2022/05/02 05:12:55;;;;;;;;;;;6.90;90.50;;;;;;8385059;28;20363;-67
2022/05/02 05:17:23;;;;;;;;;;;7.00;90.50;;;;;;8384428;28;19939;-68
2022/05/02 05:21:32;;;;;;;;;;;7.20;91.00;;;;;;8370421;28;19921;-68
2022/05/02 05:25:36;;;;;;;;;;;7.20;91.10;;;;;;8384909;28;19943;-68
2022/05/02 05:29:38;;;;;;;;;;;7.30;91.20;;;;;;8386789;28;19920;-67
2022/05/02 05:33:43;;;;;;;;;;;7.40;91.30;;;;;;8378141;28;19935;-67
2022/05/02 05:38:00;;;;;;;;;;;7.50;91.70;;;;;;8370836;28;19920;-67
2022/05/02 05:42:21;;;;;;;;;;;7.60;91.90;;;;;;8403122;27;19935;-67
2022/05/02 05:46:40;;;;;;;;;;;7.80;92.30;;;;;;8387790;28;19943;-67
2022/05/02 05:50:47;;;;;;;;;;;7.90;93.10;;;;;;8417112;27;20272;-67
2022/05/02 05:54:55;;;;;;;;;;;8.10;93.00;;;;;;8391683;28;19924;-67
2022/05/02 05:58:57;;;;;;;;;;;8.20;92.60;;;;;;8361524;28;20588;-68
2022/05/02 06:03:13;;;;;;;;;;;8.40;92.70;;;;;;8377068;28;20498;-68
2022/05/02 06:07:19;;;;;;;;;;;8.60;92.90;;;;;;8390123;28;19929;-68
2022/05/02 06:11:21;;;;;;;;;;;8.80;93.10;;;;;;8373596;28;20069;-68
2022/05/02 06:19:45;;;;;;;;;;;9.20;93.30;;;;;;8364655;28;20761;-67
2022/05/02 06:23:47;;;;;;;;;;;9.40;93.60;;;;;;8377728;28;19928;-67
2022/05/02 06:27:50;;;;;;;;;;;9.60;93.80;;;;;;8354004;28;19931;-67
2022/05/02 06:31:54;;;;;;;;;;;9.90;94.10;;;;;;8354732;28;20240;-67
2022/05/02 06:36:06;;;;;;;;;;;10.10;93.80;;;;;;8363028;28;20303;-67
2022/05/02 06:40:19;;;;;;;;;;;10.30;93.90;;;;;;8355854;28;19924;-67
2022/05/02 06:44:23;;;;;;;;;;;10.60;94.10;;;;;;8363213;28;19928;-67
2022/05/02 06:48:25;;;;;;;;;;;10.80;94.20;;;;;;8360642;28;19937;-68
2022/05/02 06:52:31;;;;;;;;;;;11.00;95.30;;;;;;8362805;28;20280;-68
2022/05/02 06:56:51;;;;;;;;;;;11.20;96.10;;;;;;8359817;28;20303;-67
2022/05/02 07:01:13;;;;;;;;;;;11.40;96.60;;;;;;8362465;28;19956;-68
2022/05/02 07:05:22;;;;;;;;;;;11.60;96.50;;;;;;8400984;27;20003;-67
2022/05/02 07:09:27;;;;;;;;;;;11.90;97.00;;;;;;8360445;28;19954;-67
2022/05/02 07:13:49;;;;;;;;;;;12.00;96.90;;;;;;8363372;28;19920;-67
2022/05/02 07:17:51;;;;;;;;;;;12.20;97.00;;;;;;8371505;28;19920;-68
2022/05/02 07:27:18;;;;;;;;;;;12.50;96.90;;;;;;8300129;28;19971;-68
2022/05/02 07:31:23;;;;;;;;;;;12.60;96.20;;;;;;8298622;28;20484;-68
2022/05/02 07:35:26;;;;;;;;;;;12.80;95.80;;;;;;8297334;28;20349;-68
2022/05/02 07:39:28;;;;;;;;;;;12.90;95.50;;;;;;8292870;28;20373;-68
2022/05/02 07:43:32;;;;;;;;;;;13.10;95.60;;;;;;8306254;28;19921;-68
2022/05/02 07:47:35;;;;;;;;;;;13.20;95.30;;;;;;8294868;28;19922;-68
2022/05/02 07:51:52;;;;;;;;;;;13.30;95.10;;;;;;8292698;28;19929;-68
2022/05/02 07:55:55;;;;;;;;;;;13.40;95.00;;;;;;8303378;28;20317;-68
2022/05/02 07:59:57;;;;;;;;;;;13.60;95.10;;;;;;8293608;28;19922;-68
2022/05/02 08:03:59;;;;;;;;;;;13.70;95.00;;;;;;8322679;28;20477;-68
2022/05/02 08:08:07;;;;;;;;;;;13.80;95.00;;;;;;8294113;28;19921;-68
2022/05/02 08:12:09;;;;;;;;;;;13.90;94.90;;;;;;8292587;28;19921;-68
2022/05/02 08:16:24;;;;;;;;;;;14.10;94.90;;;;;;8300175;28;19940;-68
2022/05/02 08:20:35;;;;;;;;;;;14.20;94.80;;;;;;8289618;28;19929;-68
2022/05/02 08:29:24;;;;;;;;;;;14.40;94.70;;;;;;8356212;28;19924;-68
2022/05/02 08:33:28;;;;;;;;;;;14.50;94.80;;;;;;8332362;28;19929;-68
2022/05/02 08:37:39;;;;;;;;;;;14.60;94.80;;;;;;8359573;28;19947;-68
2022/05/02 08:42:04;;;;;;;;;;;14.70;94.70;;;;;;8387585;28;19927;-68
2022/05/02 08:46:35;;;;;;;;;;;14.80;94.60;;;;;;8360210;28;19928;-68
2022/05/02 08:50:52;;;;;;;;;;;14.90;94.60;;;;;;8350781;28;19924;-68
2022/05/02 08:55:06;;;;;;;;;;;15.00;94.60;;;;;;8357303;28;19929;-68
2022/05/02 08:59:26;;;;;;;;;;;15.20;94.60;;;;;;8388707;28;19924;-68
2022/05/02 09:03:40;;;;;;;;;;;15.30;94.80;;;;;;8390900;27;19932;-68
2022/05/02 09:07:54;;;;;;;;;;;15.40;94.60;;;;;;8360769;28;19931;-68
2022/05/02 09:12:14;;;;;;;;;;;15.60;94.70;;;;;;8352670;28;20402;-68
2022/05/02 09:16:34;;;;;;;;;;;15.60;94.70;;;;;;8357399;28;19965;-68
2022/05/02 09:20:39;;;;;;;;;;;15.80;94.80;;;;;;8354473;28;19920;-68
2022/05/02 09:24:59;;;;;;;;;;;15.90;94.60;;;;;;8355482;28;20365;-68
2022/05/02 09:29:29;;;;;;;;;;;16.00;94.60;;;;;;8354944;28;19979;-68
2022/05/02 09:33:35;;;;;;;;;;;16.10;94.40;;;;;;8384170;27;20391;-68
2022/05/02 09:37:40;;;;;;;;;;;16.10;94.30;;;;;;8358426;28;19928;-68
2022/05/02 09:42:00;;;;;;;;;;;16.30;94.40;;;;;;8361103;28;20102;-68
2022/05/02 09:50:22;;;;;;;;;;;16.40;94.10;;;;;;8362890;28;19920;-68
2022/05/02 09:59:10;;;;;;;;;;;16.60;94.40;;;;;;8351908;28;20332;-68
2022/05/02 10:03:21;;;;;;;;;;;16.80;94.40;;;;;;8390879;28;19943;-68
2022/05/02 10:07:24;;;;;;;;;;;17.00;94.30;;;;;;8365160;28;19924;-68
2022/05/02 10:11:35;;;;;;;;;;;17.10;94.40;;;;;;8366356;28;19929;-68
2022/05/02 10:15:48;;;;;;;;;;;17.10;94.10;;;;;;8353127;28;19920;-68
2022/05/02 10:20:02;;;;;;;;;;;17.30;94.30;;;;;;8352745;28;20038;-70
2022/05/02 10:24:25;;;;;;;;;;;17.50;94.60;;;;;;8350561;28;20011;-68
2022/05/02 10:28:30;;;;;;;;;;;17.80;94.80;;;;;;8345248;28;19920;-68
2022/05/02 10:32:31;;;;;;;;;;;18.00;94.80;;;;;;8353741;28;19925;-68
2022/05/02 10:36:40;;;;;;;;;;;18.20;94.90;;;;;;8356548;28;19927;-68
2022/05/02 10:40:42;;;;;;;;;;;18.50;95.10;;;;;;8360919;28;19921;-68
2022/05/02 10:44:44;;;;;;;;;;;18.80;95.30;;;;;;8362310;28;20380;-68
2022/05/02 10:48:50;;;;;;;;;;;18.90;95.40;;;;;;8350032;28;19921;-68
2022/05/02 10:52:57;;;;;;;;;;;18.90;95.50;;;;;;8355327;28;19947;-68
2022/05/02 10:57:02;;;;;;;;;;;19.00;95.40;;;;;;8357457;28;19925;-68
2022/05/02 11:01:07;;;;;;;;;;;19.00;95.40;;;;;;8342903;28;20185;-68
2022/05/02 11:05:10;;;;;;;;;;;19.10;95.60;;;;;;8361414;28;19928;-68
2022/05/02 11:09:23;;;;;;;;;;;19.30;96.60;;;;;;8355595;28;19947;-68
2022/05/02 11:13:43;;;;;;;;;;;19.70;98.20;;;;;;8357462;28;20338;-68
2022/05/02 11:17:48;;;;;;;;;;;20.10;99.70;;;;;;8363792;28;20363;-68
2022/05/02 11:21:52;;;;;;;;;;;20.40;99.90;;;;;;8362477;28;20027;-68
2022/05/02 11:25:57;;;;;;;;;;;20.50;99.50;;;;;;8365505;28;20368;-68
2022/05/02 11:30:06;;;;;;;;;;;20.60;99.50;;;;;;8370448;28;19928;-69
2022/05/02 11:34:07;;;;;;;;;;;20.70;99.30;;;;;;8370235;28;19928;-68
2022/05/02 11:38:23;;;;;;;;;;;20.80;99.90;;;;;;8374692;28;19964;-68
2022/05/02 11:42:27;;;;;;;;;;;21.00;99.90;;;;;;8406945;28;19935;-68
2022/05/02 11:46:29;;;;;;;;;;;21.10;99.90;;;;;;8369634;28;19936;-68
2022/05/02 11:50:39;;;;;;;;;;;21.20;99.90;;;;;;8374253;28;20328;-68
2022/05/02 11:54:45;;;;;;;;;;;21.30;99.70;;;;;;8374701;28;19921;-68
2022/05/02 11:58:54;;;;;;;;;;;21.40;98.60;;;;;;8375612;28;20265;-68
2022/05/02 12:03:16;;;;;;;;;;;21.50;98.40;;;;;;8369478;28;19952;-68
2022/05/02 12:07:21;;;;;;;;;;;21.50;98.50;;;;;;8367420;28;19951;-68
2022/05/02 12:11:23;;;;;;;3.67;2.03;;;21.80;99.90;;;;;;8360323;28;19920;-68
2022/05/02 12:15:25;;;;;;;4.45;2.00;;;21.70;99.90;;;;;;8354467;28;20053;-68
2022/05/02 12:19:30;;;;;;;4.13;2.10;;;21.70;99.90;;;;;;8356114;28;20079;-68
2022/05/02 12:23:34;;;;;;;4.32;2.20;;;21.70;99.20;;;;;;8357565;28;20049;-68
2022/05/02 12:27:36;;;;;;;4.63;2.17;;;21.60;98.70;;;;;;8359989;28;20061;-68
2022/05/02 12:31:39;;;;;;;;;;;21.40;97.70;;;;;;8358762;28;20056;-68
2022/05/02 12:35:42;;;;;;;;;;;21.10;96.50;;;;;;8357822;28;19925;-68
2022/05/02 12:39:49;;;;;;;;;;;20.60;95.60;;;;;;8358010;28;19925;-68
2022/05/02 12:43:52;;;;;;;;;;;20.50;94.90;;;;;;8356506;28;19952;-68
2022/05/02 12:47:57;;;;;;;;;;;20.50;94.50;;;;;;8356746;28;20387;-68
2022/05/02 12:51:59;;;;;;;;;;;20.60;94.10;;;;;;8358200;28;19972;-68
2022/05/02 12:56:00;;;;;;;;;;;20.60;93.80;;;;;;8358426;28;19935;-68
2022/05/02 13:04:25;;;;;;;;;;;20.80;94.10;;;;;;8357893;28;19925;-68
2022/05/02 13:08:34;;;;;;;;;;;20.90;94.30;;;;;;8359260;28;20304;-68
2022/05/02 13:12:35;;;;;;;;;;;20.80;93.60;;;;;;8354867;28;19929;-68
2022/05/02 13:16:44;;;;;;;;;;;20.60;93.20;;;;;;8357872;28;19932;-68
2022/05/02 13:21:09;;;;;;;;;;;20.50;92.90;;;;;;8351596;28;20369;-68
2022/05/02 13:25:11;;;;;;;;;;;20.50;92.60;;;;;;8355427;28;19943;-68
2022/05/02 13:29:22;;;;;;;;;;;20.40;92.40;;;;;;8358583;28;20030;-68
2022/05/02 13:33:30;;;;;;;;;;;20.50;92.10;;;;;;8355189;28;19955;-68
2022/05/02 13:37:39;;;;;;;;;;;20.60;92.10;;;;;;8356034;28;19935;-68
2022/05/02 13:41:48;;;;;;;;;;;20.90;92.20;;;;;;8352897;28;19927;-68
2022/05/02 13:45:59;;;;;;;;;;;21.20;92.00;;;;;;8356552;28;19928;-68
2022/05/02 13:50:14;;;;;;;;;;;21.60;92.90;;;;;;8354944;28;19921;-68
2022/05/02 13:54:28;;;;;;;;;;;21.90;94.00;;;;;;8353184;28;19924;-68
2022/05/02 13:58:42;;;;;;;;;;;21.80;93.80;;;;;;8353416;28;19926;-68
2022/05/02 14:02:55;;;;;;;;;;;21.80;94.00;;;;;;8357517;28;19932;-68
2022/05/02 14:11:02;;;;;;;;;;;22.30;94.70;;;;;;8357357;28;19921;-68
2022/05/02 14:15:06;;;;;;;;;;;22.30;94.20;;;;;;8359078;28;19920;-68
2022/05/02 14:19:08;;;;;;;;;;;22.30;93.90;;;;;;8355419;28;19920;-68
2022/05/02 14:23:10;;;;;;;;;;;22.40;93.60;;;;;;8351606;28;19928;-68
2022/05/02 14:27:13;;;;;;;;;;;22.30;93.00;;;;;;8356249;28;19929;-68
2022/05/02 14:31:15;;;;;;;;;;;22.20;92.40;;;;;;8365817;28;19925;-68
2022/05/02 14:35:24;;;;;;;;;;;22.20;92.50;;;;;;8364704;28;20015;-68
2022/05/02 14:39:26;;;;;;;;;;;22.40;92.40;;;;;;8355077;28;19924;-68
2022/05/02 14:43:28;;;;;;;;;;;22.60;92.40;;;;;;8357202;28;19932;-68
2022/05/02 14:47:30;;;;;;;;;;;22.80;92.80;;;;;;8356001;28;20462;-68
2022/05/02 14:51:38;;;;;;;;;;;22.70;92.10;;;;;;8399775;28;19928;-68
2022/05/02 14:55:50;;;;;;;;;;;22.60;91.90;;;;;;8369378;28;19924;-68
2022/05/02 14:59:55;;;;;;;;;;;22.50;92.40;;;;;;8357090;28;19928;-68
2022/05/02 15:03:59;;;;;;;;;;;22.80;92.20;;;;;;8356849;28;19921;-68
2022/05/02 15:08:11;;;;;;;;;;;23.20;92.50;;;;;;8353797;28;20311;-69
2022/05/02 15:12:17;;;;;;;;;;;23.50;92.70;;;;;;8362472;28;20596;-69
2022/05/02 15:16:33;;;;;;;;;;;24.00;92.90;;;;;;8360850;28;19921;-69
2022/05/02 15:20:39;;;;;;;;;;;24.30;92.90;;;;;;8390645;27;19928;-69
2022/05/02 15:24:52;;;;;;;;;;;24.60;92.60;;;;;;8357761;28;19944;-69
2022/05/02 15:37:44;;;;;;;;;;;24.40;93.40;;;;;;8357475;28;20289;-69
2022/05/02 15:41:46;;;;;;;;;;;24.50;93.20;;;;;;8358058;28;19959;-68
2022/05/02 15:45:47;;;;;;;;;;;24.80;93.30;;;;;;8357539;28;19921;-69
2022/05/02 15:49:53;;;;;;;;;;;25.30;94.50;;;;;;8358908;28;20130;-69
2022/05/02 15:54:23;;;;;;;;;;;25.90;96.30;;;;;;8357742;28;19925;-69
2022/05/02 15:58:25;;;;;;;;;;;26.50;97.50;;;;;;8357664;28;20265;-69
2022/05/02 16:02:30;;;;;;;;;;;27.00;98.40;;;;;;8360181;28;25120;-69
2022/05/02 16:06:46;;;;;;;4.18;1.80;;;27.20;98.60;;;;;;8365640;28;19920;-69
2022/05/02 16:11:05;;;;;;;3.80;1.92;;;27.40;98.90;;;;;;8357007;28;20073;-69
2022/05/02 16:15:13;;;;;;;3.83;1.80;;;27.70;99.10;;;;;;8355619;28;20050;-69
2022/05/02 16:19:15;;;;;;;4.22;1.88;;;27.70;99.10;;;;;;8356273;28;20061;-69
2022/05/02 16:23:20;;;;;;;6.40;2.28;;;27.80;99.10;;;;;;8357454;28;20069;-69
2022/05/02 16:27:22;;;;;;;;;;;27.80;98.70;;;;;;8358315;28;20057;-69
2022/05/02 16:31:24;;;;;;;7.68;1.98;;;27.70;95.80;;;;;;8356962;28;19921;-69
2022/05/02 16:35:27;;;;;;;3.97;1.80;;;27.40;97.10;;;;;;8357240;28;20055;-69
2022/05/02 16:39:29;;;;;;;3.40;1.90;;;27.30;96.40;;;;;;8358610;28;20408;-69
2022/05/02 16:43:31;;;;;;;4.32;2.15;;;27.20;96.10;;;;;;8359808;28;20041;-69
2022/05/02 16:47:37;;;;;;;4.88;1.88;;;27.20;95.40;;;;;;8359418;28;20041;-69
2022/05/02 16:51:40;;;;;;;4.85;1.88;;;27.10;94.40;;;;;;8357757;28;20041;-69
2022/05/02 16:55:42;;;;;;;3.38;1.80;;;27.00;93.90;;;;;;8357328;28;20044;-69
2022/05/02 16:59:43;;;;;;;3.90;1.83;;;26.90;92.80;;;;;;8355827;28;20084;-69
2022/05/02 17:03:58;;;;;;;3.63;1.90;;;26.70;92.00;;;;;;8357377;28;20135;-69
2022/05/02 17:08:00;;;;;;;;;;;26.60;90.80;;;;;;8357806;28;19928;-69
2022/05/02 17:12:02;;;;;;;;;;;26.40;89.90;;;;;;8356693;28;20533;-69
2022/05/02 17:16:15;;;;;;;;;;;26.40;89.00;;;;;;8360579;28;21175;-68
2022/05/02 17:20:18;;;;;;;;;;;26.20;87.30;;;;;;8355412;28;19925;-68
2022/05/02 17:24:22;;;;;;;;;;;26.10;85.30;;;;;;8387018;28;19921;-69
2022/05/02 17:28:28;;;;;;;;;;;26.00;83.90;;;;;;8354068;28;20368;-69
2022/05/02 17:32:39;;;;;;;;;;;25.80;82.90;;;;;;8353125;28;19928;-69
2022/05/02 17:36:51;;;;;;;;;;;25.70;81.50;;;;;;8356289;28;20272;-68
2022/05/02 17:40:53;;;;;;;;;;;25.40;80.20;;;;;;8367047;28;19927;-68
2022/05/02 17:44:56;;;;;;;;;;;25.10;78.80;;;;;;8359685;28;20164;-68
2022/05/02 17:48:58;;;;;;;;;;;24.70;77.70;;;;;;8348293;28;19924;-68
2022/05/02 17:53:02;;;;;;;;;;;24.40;76.80;;;;;;8352987;28;19951;-68
2022/05/02 17:57:04;;;;;;;3.65;1.88;;;24.20;76.40;;;;;;8386187;27;19925;-68
2022/05/02 18:01:07;;;;;;;;;;;23.80;75.00;;;;;;8349287;28;20522;-69
2022/05/02 18:05:10;;;;;;;;;;;23.30;73.60;;;;;;8360910;28;25119;-68
2022/05/02 18:09:13;;;;;;;;;;;22.70;72.40;;;;;;8353219;28;24076;-69
2022/05/02 18:13:17;;;;;;;3.25;1.48;;;22.30;71.70;;;;;;8387920;28;24112;-68
2022/05/02 18:17:32;;;;;;;2.53;1.30;;;21.80;71.10;;;;;;8390075;27;20072;-68
2022/05/02 18:21:41;;;;;;;2.70;1.40;;;21.50;70.60;;;;;;8358781;28;20045;-68
2022/05/02 18:25:44;;;;;;;;;;;21.30;70.20;;;;;;8389509;28;20049;-68
2022/05/02 18:29:47;;;;;;;;;;;21.20;69.70;;;;;;8392486;28;19929;-68
2022/05/02 18:33:51;;;;;;;;;;;21.10;69.00;;;;;;8350264;28;19985;-68
2022/05/02 18:37:52;;;;;;;;;;;20.90;68.60;;;;;;8350107;28;19929;-68
2022/05/02 18:42:11;;;;;;;;;;;20.70;68.30;;;;;;8363544;28;19928;-68
2022/05/02 18:55:10;;;;;;;;;;;19.90;67.70;;;;;;8367378;28;19956;-68
2022/05/02 18:59:13;;;;;;;;;;;19.70;67.40;;;;;;8367070;28;24079;-68
2022/05/02 19:03:15;;;;;;;;;;;19.40;67.30;;;;;;8369604;28;20898;-68
2022/05/02 19:07:19;;;;;;;;;;;19.20;67.20;;;;;;8366763;28;20706;-68
2022/05/02 19:11:23;;;;;;;;;;;19.10;67.80;;;;;;8367471;28;19929;-68
2022/05/02 19:15:26;;;;;;;;;;;18.90;68.20;;;;;;8372280;28;19929;-68
2022/05/02 19:19:28;;;;;;;;;;;18.80;68.50;;;;;;8371903;28;19981;-68
2022/05/02 19:23:39;;;;;;;;;;;18.60;70.10;;;;;;8367036;28;19925;-68
2022/05/02 19:27:43;;;;;;;;;;;18.50;70.50;;;;;;8365391;28;19925;-68
2022/05/02 19:31:45;;;;;;;;;;;18.30;69.00;;;;;;8366848;28;19932;-68
2022/05/02 19:40:24;;;;;;;;;;;18.00;67.90;;;;;;8369525;28;20006;-68
2022/05/02 19:44:25;;;;;;;;;;;17.90;67.80;;;;;;8368000;28;19933;-68
2022/05/02 19:48:28;;;;;;;;;;;17.80;67.40;;;;;;8383936;28;19939;-68
2022/05/02 19:52:30;;;;;;;;;;;17.70;67.60;;;;;;8368410;28;19944;-69
2022/05/02 19:56:31;;;;;;;;;;;17.50;67.30;;;;;;8359130;28;19920;-68
2022/05/02 20:00:34;;;;;;;;;;;17.40;67.20;;;;;;8365021;28;19924;-68
2022/05/02 20:04:36;;;;;;;;;;;17.40;67.10;;;;;;8362319;28;19921;-68
2022/05/02 20:08:41;;;;;;;;;;;17.20;67.00;;;;;;8365195;28;19968;-69
2022/05/02 20:12:44;;;;;;;;;;;17.10;66.90;;;;;;8354742;28;20015;-68
2022/05/02 20:16:45;;;;;;;;;;;17.00;66.90;;;;;;8354818;28;19974;-68
2022/05/02 20:20:48;;;;;;;;;;;16.90;66.60;;;;;;8358766;28;19964;-68
2022/05/02 20:24:50;;;;;;;;;;;16.80;66.60;;;;;;8348821;28;19925;-68
2022/05/02 20:28:51;;;;;;;;;;;16.70;66.40;;;;;;8391991;27;19925;-68
2022/05/02 20:37:15;;;;;;;;;;;16.60;66.30;;;;;;8371608;28;19921;-68
2022/05/02 20:41:20;;;;;;;;;;;16.60;66.50;;;;;;8370233;28;19924;-68
2022/05/02 20:45:26;;;;;;;;;;;16.40;66.00;;;;;;8368641;28;19925;-68
2022/05/02 20:49:40;;;;;;;;;;;16.40;66.40;;;;;;8366034;28;19930;-68
2022/05/02 20:53:43;;;;;;;;;;;16.30;66.10;;;;;;8361814;28;19943;-68
2022/05/02 20:57:46;;;;;;;;;;;16.20;66.40;;;;;;8367543;28;19957;-68
2022/05/02 21:01:47;;;;;;;;;;;16.10;66.30;;;;;;8362515;28;19932;-68
2022/05/02 21:05:49;;;;;;;;;;;16.10;66.30;;;;;;8381241;28;19928;-68
2022/05/02 21:09:51;;;;;;;;;;;16.00;66.20;;;;;;8365246;28;19920;-68
2022/05/02 21:14:06;;;;;;;;;;;15.90;66.40;;;;;;8373247;28;19928;-68
2022/05/02 21:18:15;;;;;;;;;;;15.80;66.20;;;;;;8393488;28;19932;-68
2022/05/02 21:22:20;;;;;;;;;;;15.70;66.30;;;;;;8370200;28;19963;-68
2022/05/02 21:26:28;;;;;;;;;;;15.60;66.50;;;;;;8418879;27;19939;-68
2022/05/02 21:30:42;;;;;;;;;;;15.50;66.40;;;;;;8360389;28;20287;-68
2022/05/02 21:34:46;;;;;;;;;;;15.40;66.50;;;;;;8374528;28;19921;-68
2022/05/02 21:38:49;;;;;;;;;;;15.40;66.80;;;;;;8384899;28;19934;-68
2022/05/02 21:42:55;;;;;;;;;;;15.30;66.90;;;;;;8382952;28;19920;-68
2022/05/02 21:46:56;;;;;;;;;;;15.20;66.80;;;;;;8390447;28;20261;-68
2022/05/02 21:50:58;;;;;;;;;;;15.20;66.90;;;;;;8381530;28;19925;-68
2022/05/02 21:55:01;;;;;;;;;;;15.10;67.00;;;;;;8379696;28;20279;-68
2022/05/02 21:59:02;;;;;;;;;;;15.00;66.70;;;;;;8387340;28;19920;-68
2022/05/02 22:03:04;;;;;;;;;;;14.90;67.00;;;;;;8384450;28;20356;-68
2022/05/02 22:07:06;;;;;;;;;;;14.80;66.80;;;;;;8375608;28;19928;-68
2022/05/02 22:11:07;;;;;;;;;;;14.70;67.00;;;;;;8385691;28;19939;-68
2022/05/02 22:15:09;;;;;;;;;;;14.60;66.60;;;;;;8369422;28;19927;-68
2022/05/02 22:19:11;;;;;;;;;;;14.60;66.90;;;;;;8367690;28;19927;-68
2022/05/02 22:23:13;;;;;;;;;;;14.50;66.70;;;;;;8356476;28;19921;-68
2022/05/02 22:27:14;;;;;;;;;;;14.40;66.60;;;;;;8390584;28;19963;-68
2022/05/02 22:31:16;;;;;;;;;;;14.30;66.70;;;;;;8378362;28;19920;-68
2022/05/02 22:35:17;;;;;;;;;;;14.30;67.10;;;;;;8376924;28;19999;-68
2022/05/02 22:39:19;;;;;;;;;;;14.20;66.90;;;;;;8368290;28;19928;-68
2022/05/02 22:43:21;;;;;;;;;;;14.10;66.90;;;;;;8385271;28;19927;-68
2022/05/02 22:47:22;;;;;;;;;;;14.00;67.30;;;;;;8382278;28;20454;-68
2022/05/02 22:51:24;;;;;;;;;;;13.90;67.00;;;;;;8380303;28;19921;-68
2022/05/02 22:55:26;;;;;;;;;;;13.80;67.10;;;;;;8390901;28;19927;-68
2022/05/02 22:59:41;;;;;;;;;;;13.80;67.20;;;;;;8376151;28;20218;-68
2022/05/02 23:03:50;;;;;;;;;;;13.60;67.10;;;;;;8385416;28;20372;-68
2022/05/02 23:07:51;;;;;;;;;;;13.30;67.30;;;;;;8367687;28;19920;-68
2022/05/02 23:11:54;;;;;;;;;;;13.00;67.60;;;;;;8380015;28;19920;-68
2022/05/02 23:15:58;;;;;;;;;;;12.80;67.80;;;;;;8381303;28;19927;-68
2022/05/02 23:20:01;;;;;;;;;;;12.60;67.30;;;;;;8386196;28;19924;-68
2022/05/02 23:24:03;;;;;;;;;;;12.40;67.60;;;;;;8361459;28;19920;-68
2022/05/02 23:28:05;;;;;;;;;;;12.30;68.10;;;;;;8377548;28;19935;-68
2022/05/02 23:32:14;;;;;;;;;;;12.20;67.70;;;;;;8377472;28;20245;-68
2022/05/02 23:36:18;;;;;;;;;;;12.10;67.20;;;;;;8390349;28;19921;-68
2022/05/02 23:40:21;;;;;;;;;;;12.10;66.80;;;;;;8393103;28;19925;-68
2022/05/02 23:44:35;;;;;;;;;;;12.00;66.70;;;;;;8392080;28;19920;-68
2022/05/02 23:48:43;;;;;;;;;;;11.90;66.60;;;;;;8381984;28;19935;-68
2022/05/02 23:53:08;;;;;;;;;;;11.90;66.50;;;;;;8380415;28;19927;-68
2022/05/02 23:57:16;;;;;;;;;;;11.70;66.60;;;;;;8393868;28;20613;-68
